Time;durP1;ratioP1;P1;durP2;ratioP2;P2;SDS_P1;SDS_P2;PMS_P1;PMS_P2;Temp;Humidity;BMP_temperature;BMP_pressure;BME280_temperature;BME280_humidity;BME280_pressure;Samples;Min_cycle;Max_cycle;Signal;HPM_P1;HPM_P2
2023/04/06 00:00:09;;;;;;;5.95;3.50;;;;;;;18.67;31.42;101726.53;4983599;28;20379;-67
2023/04/06 00:02:34;;;;;;;5.90;3.53;;;;;;;18.66;31.35;101722.19;4990062;28;20111;-69
2023/04/06 00:05:00;;;;;;;6.32;3.90;;;;;;;18.67;31.37;101721.25;5000298;28;20084;-69
2023/04/06 00:07:25;;;;;;;6.03;4.05;;;;;;;18.65;31.22;101720.50;4993319;28;20052;-68
2023/04/06 00:09:51;;;;;;;5.65;3.38;;;;;;;18.68;31.51;101722.09;4993941;28;20398;-68
2023/04/06 00:12:16;;;;;;;5.43;3.47;;;;;;;18.65;31.62;101709.94;4983256;28;20037;-68
2023/04/06 00:14:42;;;;;;;6.82;4.00;;;;;;;18.66;31.53;101709.00;4982881;28;20390;-68
2023/04/06 00:17:07;;;;;;;6.07;3.83;;;;;;;18.67;31.35;101710.69;4990532;28;20038;-68
2023/04/06 00:19:33;;;;;;;6.38;3.80;;;;;;;18.67;31.43;101710.69;4982958;28;20022;-67
2023/04/06 00:21:58;;;;;;;6.63;3.65;;;;;;;18.66;31.23;101702.88;4983062;28;20057;-68
2023/04/06 00:24:23;;;;;;;5.65;3.70;;;;;;;18.63;31.18;101700.47;4998517;28;20133;-69
2023/04/06 00:26:49;;;;;;;7.97;3.53;;;;;;;18.62;31.31;101701.41;5002331;28;20144;-68
2023/04/06 00:29:14;;;;;;;6.05;3.42;;;;;;;18.59;31.23;101691.88;5002309;28;20463;-68
2023/04/06 00:31:40;;;;;;;6.20;4.22;;;;;;;18.60;31.09;101698.03;4965043;28;20108;-69
2023/04/06 00:34:06;;;;;;;6.15;3.38;;;;;;;18.58;31.08;101692.84;4977095;28;20395;-68
2023/04/06 00:36:31;;;;;;;7.68;3.60;;;;;;;18.57;30.97;101692.97;4993947;28;20505;-67
2023/04/06 00:38:56;;;;;;;7.65;3.70;;;;;;;18.56;31.31;101693.91;4994588;28;20045;-68
2023/04/06 00:41:22;;;;;;;6.85;3.75;;;;;;;18.57;31.18;101692.97;4996682;28;20030;-68
2023/04/06 00:43:47;;;;;;;7.68;3.70;;;;;;;18.56;31.04;101688.63;4979211;28;20125;-67
2023/04/06 00:46:12;;;;;;;6.20;3.38;;;;;;;18.51;31.19;101683.66;5001451;28;20034;-66
2023/04/06 00:48:39;;;;;;;6.07;3.50;;;;;;;18.53;31.13;101681.75;5002146;28;20651;-68
2023/04/06 00:51:04;;;;;;;6.95;3.83;;;;;;;18.51;31.21;101685.47;5001741;28;20061;-68
2023/04/06 00:53:29;;;;;;;6.18;3.63;;;;;;;18.49;31.04;101677.66;5001984;28;20088;-67
2023/04/06 00:55:55;;;;;;;5.93;3.83;;;;;;;18.51;31.12;101675.75;4987469;28;20469;-67
2023/04/06 00:58:20;;;;;;;5.97;3.58;;;;;;;18.46;31.22;101676.06;4982776;28;20085;-67
2023/04/06 01:00:46;;;;;;;8.40;3.90;;;;;;;18.46;31.06;101667.31;4983556;28;20034;-69
2023/04/06 01:03:11;;;;;;;7.10;3.38;;;;;;;18.47;31.34;101677.75;5001617;28;20041;-67
2023/04/06 01:05:40;;;;;;;7.10;3.65;;;;;;;18.44;31.31;101662.13;5001640;28;20026;-68
2023/04/06 01:08:06;;;;;;;6.60;3.65;;;;;;;18.44;31.24;101662.13;4974463;28;20030;-68
2023/04/06 01:10:31;;;;;;;5.88;3.85;;;;;;;18.45;31.22;101666.47;4998221;28;20030;-68
2023/04/06 01:12:56;;;;;;;6.30;3.60;;;;;;;18.43;31.42;101647.25;5000095;28;20087;-69
2023/04/06 01:15:23;;;;;;;6.97;3.42;;;;;;;18.45;31.06;101652.41;4995397;28;20031;-67
2023/04/06 01:17:48;;;;;;;6.18;3.45;;;;;;;18.45;31.03;101652.41;4982385;28;20048;-68
2023/04/06 01:20:14;;;;;;;5.93;3.60;;;;;;;18.46;31.03;101660.22;4994281;28;20437;-68
2023/04/06 01:22:39;;;;;;;6.18;3.70;;;;;;;18.45;31.09;101652.41;4997708;28;20490;-69
2023/04/06 01:25:05;;;;;;;6.50;3.55;;;;;;;18.43;30.90;101655.16;4981894;28;20034;-68
2023/04/06 01:27:31;;;;;;;6.10;3.67;;;;;;;18.43;31.03;101654.31;4981679;28;20026;-67
2023/04/06 01:29:56;;;;;;;5.90;3.78;;;;;;;18.41;31.03;101646.50;4981780;28;20057;-68
2023/04/06 01:32:21;;;;;;;6.18;3.60;;;;;;;18.41;31.19;101653.59;4981643;28;20061;-68
2023/04/06 01:34:47;;;;;;;6.68;3.78;;;;;;;18.40;30.90;101647.44;4982305;28;20046;-69
2023/04/06 01:37:12;;;;;;;6.03;3.78;;;;;;;18.40;30.91;101643.97;4981786;28;20790;-68
2023/04/06 01:39:37;;;;;;;6.82;3.90;;;;;;;18.39;31.08;101643.13;4987447;28;20041;-68
2023/04/06 01:42:02;;;;;;;5.88;3.50;;;;;;;18.36;31.10;101639.84;5001354;28;20145;-67
2023/04/06 01:44:30;;;;;;;5.93;3.55;;;;;;;18.38;30.99;101645.88;4998877;28;20034;-67
2023/04/06 01:46:56;;;;;;;5.95;3.45;;;;;;;18.35;31.03;101631.09;4964021;28;20046;-68
2023/04/06 01:49:21;;;;;;;6.78;4.07;;;;;;;18.34;30.81;101629.44;4992425;28;20874;-67
2023/04/06 01:51:46;;;;;;;6.03;3.40;;;;;;;18.33;31.14;101627.72;4991518;28;20121;-69
2023/04/06 01:54:12;;;;;;;5.83;3.40;;;;;;;18.31;31.09;101619.91;4980737;28;20044;-68
2023/04/06 01:56:37;;;;;;;6.70;3.90;;;;;;;18.35;31.13;101625.81;4982122;28;20299;-67
2023/04/06 01:59:02;;;;;;;7.22;3.70;;;;;;;18.33;30.77;101617.19;4992977;28;20042;-67
2023/04/06 02:01:28;;;;;;;7.10;3.90;;;;;;;18.34;31.06;101618.00;4984414;28;20194;-67
2023/04/06 02:03:53;;;;;;;6.53;3.78;;;;;;;18.35;30.95;101617.06;4991645;28;20438;-69
2023/04/06 02:06:18;;;;;;;5.97;3.53;;;;;;;18.33;31.04;101614.53;5000749;28;20026;-68
2023/04/06 02:08:43;;;;;;;5.63;3.58;;;;;;;18.35;30.76;101611.78;4990656;28;20081;-68
2023/04/06 02:11:09;;;;;;;6.25;3.58;;;;;;;18.33;30.87;101611.06;4982487;28;20030;-69
2023/04/06 02:13:34;;;;;;;5.45;3.80;;;;;;;18.29;31.05;101611.28;5001032;28;20441;-69
2023/04/06 02:15:59;;;;;;;6.28;3.67;;;;;;;18.30;31.11;101606.84;4987057;28;20045;-68
2023/04/06 02:18:25;;;;;;;6.20;3.78;;;;;;;18.22;31.07;101598.63;4981504;28;20042;-68
2023/04/06 02:20:50;;;;;;;5.70;3.65;;;;;;;18.28;31.10;101608.75;4981656;28;20047;-67
2023/04/06 02:23:16;;;;;;;6.38;3.50;;;;;;;18.27;31.06;101591.22;4993641;28;20034;-68
2023/04/06 02:25:41;;;;;;;6.70;4.30;;;;;;;18.27;30.88;101596.50;4999314;28;20473;-67
2023/04/06 02:28:07;;;;;;;7.45;4.53;;;;;;;18.25;30.96;101593.13;4985271;28;20463;-68
2023/04/06 02:30:32;;;;;;;6.80;4.25;;;;;;;18.26;30.96;101602.72;4986194;28;20558;-68
2023/04/06 02:33:00;;;;;;;6.32;4.22;;;;;;;18.24;30.86;101594.91;5001830;28;20088;-68
2023/04/06 02:35:25;;;;;;;6.72;3.92;;;;;;;18.26;30.96;101594.78;4997233;28;20044;-68
2023/04/06 02:37:50;;;;;;;6.72;4.20;;;;;;;18.24;30.80;101581.72;4985141;28;20042;-68
2023/04/06 02:40:15;;;;;;;6.38;4.20;;;;;;;18.26;30.80;101581.59;4984948;28;20479;-69
2023/04/06 02:42:41;;;;;;;5.65;3.70;;;;;;;18.23;30.75;101574.75;4992177;28;20038;-69
2023/04/06 02:45:07;;;;;;;6.63;4.28;;;;;;;18.25;30.94;101578.13;4992199;28;21020;-69
2023/04/06 02:47:33;;;;;;;7.43;3.90;;;;;;;18.24;30.83;101579.06;4985388;28;20069;-69
2023/04/06 02:49:58;;;;;;;6.75;4.18;;;;;;;18.23;30.79;101571.25;4995172;28;20457;-69
2023/04/06 02:52:23;;;;;;;6.10;3.95;;;;;;;18.25;30.62;101572.03;4995168;28;20066;-69
2023/04/06 02:54:50;;;;;;;6.57;3.92;;;;;;;18.24;30.88;101568.50;4996551;28;20470;-68
2023/04/06 02:57:16;;;;;;;7.78;4.10;;;;;;;18.23;30.71;101566.84;5004227;28;20617;-67
2023/04/06 02:59:41;;;;;;;7.63;4.60;;;;;;;18.20;30.76;101564.44;4990429;28;20522;-67
2023/04/06 03:02:06;;;;;;;7.68;4.28;;;;;;;18.20;30.74;101567.06;4997756;28;20038;-68
2023/04/06 03:04:31;;;;;;;6.85;4.53;;;;;;;18.18;30.95;101561.03;5003957;28;20037;-68
2023/04/06 03:06:57;;;;;;;8.95;4.85;;;;;;;18.17;30.88;101559.38;4989354;28;20042;-67
2023/04/06 03:09:22;;;;;;;6.80;4.43;;;;;;;18.15;30.93;101563.91;4991929;28;20049;-68
2023/04/06 03:11:47;;;;;;;6.32;4.30;;;;;;;18.17;30.97;101555.88;4979582;28;20069;-69
2023/04/06 03:14:13;;;;;;;6.18;4.20;;;;;;;18.16;30.83;101549.75;4984422;28;20028;-68
2023/04/06 03:16:38;;;;;;;7.28;4.95;;;;;;;18.19;30.89;101556.63;4997804;28;20026;-67
2023/04/06 03:19:03;;;;;;;6.05;4.28;;;;;;;18.19;30.93;101546.06;4992336;28;20030;-67
2023/04/06 03:21:29;;;;;;;6.90;4.85;;;;;;;18.16;30.80;101552.38;4983998;28;20054;-68
2023/04/06 03:23:54;;;;;;;6.97;4.43;;;;;;;18.18;30.93;101542.56;4988033;28;20407;-68
2023/04/06 03:26:20;;;;;;;7.80;4.53;;;;;;;18.14;30.75;101538.47;4998538;28;20037;-69
2023/04/06 03:28:45;;;;;;;7.60;4.70;;;;;;;18.17;30.77;101545.34;5003376;28;20037;-68
2023/04/06 03:31:10;;;;;;;6.80;4.60;;;;;;;18.17;30.75;101535.63;4997224;28;20045;-67
2023/04/06 03:33:35;;;;;;;7.90;5.32;;;;;;;18.15;31.02;101541.94;4988084;28;20275;-68
2023/04/06 03:36:01;;;;;;;7.95;5.07;;;;;;;18.14;30.94;101538.47;5001791;28;20407;-69
2023/04/06 03:38:26;;;;;;;7.33;4.70;;;;;;;18.13;30.91;101536.78;4995193;28;20097;-68
2023/04/06 03:40:51;;;;;;;7.22;4.95;;;;;;;18.12;30.82;101535.94;4995694;28;20263;-68
2023/04/06 03:43:16;;;;;;;6.40;4.60;;;;;;;18.11;31.04;101533.41;4986816;28;20089;-67
2023/04/06 03:45:42;;;;;;;8.33;4.80;;;;;;;18.11;31.11;101539.50;4992846;28;20272;-66
2023/04/06 03:48:07;;;;;;;7.90;4.80;;;;;;;18.10;31.12;101535.22;5003043;28;20291;-68
2023/04/06 03:50:32;;;;;;;6.93;4.73;;;;;;;18.12;31.16;101535.94;4992057;28;20300;-69
2023/04/06 03:52:57;;;;;;;7.70;4.77;;;;;;;18.13;30.89;101542.91;4988608;28;20270;-68
2023/04/06 03:55:22;;;;;;;6.43;4.23;;;;;;;18.12;31.11;101533.31;4993229;28;20262;-68
2023/04/06 03:57:48;;;;;;;8.07;4.43;;;;;;;18.12;31.10;101532.47;4985283;28;20282;-68
2023/04/06 04:00:13;;;;;;;7.22;4.78;;;;;;;18.12;30.72;101537.75;5002748;28;20267;-67
2023/04/06 04:02:39;;;;;;;8.55;5.13;;;;;;;18.09;31.00;101528.25;4984621;28;20060;-68
2023/04/06 04:05:05;;;;;;;7.22;4.63;;;;;;;18.11;30.84;101538.69;4991864;28;20037;-68
2023/04/06 04:07:30;;;;;;;7.22;4.90;;;;;;;18.10;30.84;101537.84;4982928;28;20050;-68
2023/04/06 04:09:56;;;;;;;6.80;4.80;;;;;;;18.09;30.86;101530.88;4994028;28;20030;-67
2023/04/06 04:12:21;;;;;;;7.32;5.00;;;;;;;18.08;30.87;101536.25;4965630;28;20129;-68
2023/04/06 04:14:46;;;;;;;6.45;4.68;;;;;;;18.05;30.91;101534.66;4988102;28;20048;-69
2023/04/06 04:17:12;;;;;;;8.32;5.18;;;;;;;18.04;30.87;101530.38;4969917;28;20876;-69
2023/04/06 04:19:37;;;;;;;6.90;4.53;;;;;;;18.03;31.21;101531.31;4997822;28;20044;-68
2023/04/06 04:22:04;;;;;;;8.30;4.77;;;;;;;18.04;31.22;101538.28;4983177;28;20264;-68
2023/04/06 04:24:30;;;;;;;7.22;4.68;;;;;;;18.06;30.91;101541.63;4984329;28;20264;-67
2023/04/06 04:26:56;;;;;;;6.88;4.45;;;;;;;18.08;30.91;101528.34;4982647;28;20049;-68
2023/04/06 04:29:22;;;;;;;8.05;4.90;;;;;;;18.08;30.72;101537.09;4987844;28;20951;-67
2023/04/06 04:31:48;;;;;;;8.23;5.72;;;;;;;18.07;30.90;101532.78;4999087;28;20042;-66
2023/04/06 04:34:14;;;;;;;7.38;5.00;;;;;;;18.07;30.92;101530.16;4996128;28;20034;-67
2023/04/06 04:36:41;;;;;;;6.68;4.55;;;;;;;18.05;30.74;101529.38;4996901;28;20041;-68
2023/04/06 04:39:07;;;;;;;6.95;4.35;;;;;;;18.03;31.02;101528.66;4993207;28;20064;-67
2023/04/06 04:41:32;;;;;;;6.85;4.40;;;;;;;18.02;31.07;101529.59;4985156;28;20479;-68
2023/04/06 04:43:57;;;;;;;7.25;4.40;;;;;;;17.97;31.36;101525.63;4986824;28;20036;-68
2023/04/06 04:46:22;;;;;;;6.45;3.95;;;;;;;17.99;31.10;101527.22;4980002;28;20078;-67
2023/04/06 04:48:48;;;;;;;7.13;4.43;;;;;;;17.97;31.72;101523.81;4982548;28;20133;-67
2023/04/06 04:51:13;;;;;;;5.47;3.57;;;;;;;17.98;32.04;101517.59;4990529;28;20045;-68
2023/04/06 04:53:38;;;;;;;5.30;3.50;;;;;;;18.03;31.90;101523.38;4975468;28;20298;-68
2023/04/06 04:56:03;;;;;;;5.30;3.30;;;;;;;18.06;32.06;101519.72;4982230;28;20267;-67
2023/04/06 04:58:29;;;;;;;5.82;3.40;;;;;;;18.07;32.14;101519.59;4982502;28;20355;-66
2023/04/06 05:00:54;;;;;;;5.93;3.30;;;;;;;18.08;31.89;101509.88;4982488;28;20026;-69
2023/04/06 05:03:22;;;;;;;5.68;3.35;;;;;;;18.13;31.85;101503.34;4982059;28;20061;-68
2023/04/06 05:05:48;;;;;;;5.10;3.10;;;;;;;18.19;32.01;101511.75;4981951;28;20026;-68
2023/04/06 05:08:13;;;;;;;6.20;3.25;;;;;;;18.21;32.04;101512.50;4995329;28;20383;-69
2023/04/06 05:10:39;;;;;;;6.65;3.05;;;;;;;18.22;31.75;101507.09;4984309;28;20091;-68
2023/04/06 05:13:04;;;;;;;4.97;3.20;;;;;;;18.25;32.00;101512.16;4982246;28;20022;-67
2023/04/06 05:15:29;;;;;;;4.63;2.70;;;;;;;18.26;31.80;101507.72;4992895;28;20053;-67
2023/04/06 05:17:55;;;;;;;5.38;2.97;;;;;;;18.30;31.63;101512.66;4981950;28;20961;-67
2023/04/06 05:20:20;;;;;;;5.50;3.00;;;;;;;18.32;31.68;101504.66;4991816;28;20030;-69
2023/04/06 05:22:45;;;;;;;5.72;2.90;;;;;;;18.33;31.63;101510.78;4982072;28;20055;-68
2023/04/06 05:25:11;;;;;;;4.68;2.92;;;;;;;18.35;31.69;101512.34;4981894;28;20030;-67
2023/04/06 05:27:36;;;;;;;6.53;3.30;;;;;;;18.36;32.11;101506.13;4998822;28;20375;-68
2023/04/06 05:30:02;;;;;;;5.22;2.90;;;;;;;18.39;31.65;101516.47;4981494;28;20263;-68
2023/04/06 05:32:27;;;;;;;6.60;3.40;;;;;;;18.38;31.48;101514.78;4963932;28;20053;-68
2023/04/06 05:34:53;;;;;;;5.88;3.08;;;;;;;18.40;31.58;101512.03;4981313;28;20030;-66
2023/04/06 05:37:18;;;;;;;5.03;2.97;;;;;;;18.41;31.76;101514.56;4984320;28;20030;-68
2023/04/06 05:39:43;;;;;;;6.30;3.50;;;;;;;18.47;31.57;101514.13;4982774;28;20116;-69
2023/04/06 05:42:09;;;;;;;5.07;3.05;;;;;;;18.51;32.15;101519.16;4988586;28;20064;-69
2023/04/06 05:44:37;;;;;;;5.68;3.42;;;;;;;18.51;32.09;101517.38;4991975;28;20494;-68
2023/04/06 05:47:02;;;;;;;5.82;3.30;;;;;;;18.54;32.28;101509.22;4986823;28;20567;-67
2023/04/06 05:49:27;;;;;;;5.10;3.05;;;;;;;18.58;32.15;101515.13;5000762;28;20034;-67
2023/04/06 05:51:52;;;;;;;5.97;3.38;;;;;;;18.58;32.00;101515.97;4994010;28;20034;-67
2023/04/06 05:54:18;;;;;;;7.27;3.20;;;;;;;18.57;32.26;101509.00;4985977;28;20542;-67
2023/04/06 05:56:43;;;;;;;5.80;3.20;;;;;;;18.59;32.52;101508.91;4983652;28;20489;-69
2023/04/06 05:59:08;;;;;;;6.83;3.27;;;;;;;18.60;32.40;101508.78;4981788;28;20507;-69
2023/04/06 06:01:34;;;;;;;5.80;3.20;;;;;;;18.63;32.70;101508.56;4995680;28;20280;-69
2023/04/06 06:04:01;;;;;;;7.00;3.60;;;;;;;18.64;32.66;101501.47;4993697;28;20030;-68
2023/04/06 06:06:27;;;;;;;6.80;3.00;;;;;;;18.62;32.85;101500.75;5004550;28;20064;-68
2023/04/06 06:08:52;;;;;;;5.65;3.30;;;;;;;18.68;32.63;101522.25;5000219;28;20045;-68
2023/04/06 06:11:18;;;;;;;6.27;2.83;;;;;;;18.72;32.43;101522.88;4993824;28;20049;-69
2023/04/06 06:13:43;;;;;;;5.88;3.30;;;;;;;18.71;32.73;101515.94;4980350;28;20346;-70
2023/04/06 06:16:08;;;;;;;6.50;3.20;;;;;;;18.75;32.73;101513.91;4992025;28;20072;-69
2023/04/06 06:18:34;;;;;;;6.70;3.58;;;;;;;18.75;32.83;101519.19;4996477;28;20038;-70
2023/04/06 06:21:00;;;;;;;6.93;3.35;;;;;;;18.77;33.19;101517.25;4988485;28;20076;-68
2023/04/06 06:23:25;;;;;;;6.85;3.40;;;;;;;18.78;32.98;101517.16;4998185;28;20033;-69
2023/04/06 06:25:50;;;;;;;7.13;3.72;;;;;;;18.78;33.35;101519.78;4995823;28;20347;-69
2023/04/06 06:28:16;;;;;;;6.38;3.53;;;;;;;18.80;32.96;101502.06;5001926;28;20099;-70
2023/04/06 06:30:41;;;;;;;5.65;3.30;;;;;;;18.80;33.30;101509.97;4997418;28;20065;-68
2023/04/06 06:33:06;;;;;;;6.03;3.40;;;;;;;18.83;33.10;101506.25;4982291;28;20030;-68
2023/04/06 06:35:32;;;;;;;5.70;3.50;;;;;;;18.88;33.10;101514.69;4987840;28;20372;-69
2023/04/06 06:37:57;;;;;;;6.03;3.35;;;;;;;18.89;33.22;101519.03;4996279;28;20141;-69
2023/04/06 06:40:23;;;;;;;9.77;2.97;;;;;;;18.92;33.20;101512.69;4995783;28;20526;-69
2023/04/06 06:42:50;;;;;;;8.20;3.17;;;;;;;18.92;33.26;101515.34;4993648;28;20299;-71
2023/04/06 06:45:15;;;;;;;5.53;3.20;;;;;;;18.94;33.29;101508.97;4993875;28;20083;-66
2023/04/06 06:47:41;;;;;;;8.13;3.45;;;;;;;18.95;33.08;101515.94;4990148;28;20046;-65
2023/04/06 06:50:06;;;;;;;8.73;3.38;;;;;;;18.94;33.07;101511.59;5000372;28;20038;-66
2023/04/06 06:52:32;;;;;;;6.70;3.10;;;;;;;18.91;33.20;101511.84;4984794;28;20042;-68
2023/04/06 06:54:57;;;;;;;6.53;3.30;;;;;;;18.93;33.13;101511.72;4999055;28;20042;-66
2023/04/06 06:57:22;;;;;;;6.47;3.50;;;;;;;18.92;33.04;101513.53;4984582;28;20042;-68
2023/04/06 06:59:48;;;;;;;5.40;3.30;;;;;;;18.89;33.07;101511.13;4993314;28;20064;-66
2023/04/06 07:02:13;;;;;;;6.18;3.55;;;;;;;18.94;32.99;101510.78;4996436;28;20038;-66
2023/04/06 07:04:38;;;;;;;6.47;3.35;;;;;;;18.93;32.96;101515.22;5003735;28;20034;-66
2023/04/06 07:07:03;;;;;;;6.97;3.60;;;;;;;18.93;32.89;101509.94;5003559;28;20112;-66
2023/04/06 07:09:29;;;;;;;7.88;3.45;;;;;;;18.89;32.95;101505.00;4994555;28;20120;-66
2023/04/06 07:11:56;;;;;;;6.93;3.70;;;;;;;18.88;32.91;101503.31;4996964;28;21019;-69
2023/04/06 07:14:21;;;;;;;6.40;3.60;;;;;;;18.87;33.09;101510.41;4991767;28;20829;-69
2023/04/06 07:16:48;;;;;;;6.30;3.35;;;;;;;18.88;33.10;101506.78;4994182;28;20026;-65
2023/04/06 07:19:13;;;;;;;5.82;3.65;;;;;;;18.87;32.95;101501.59;4989062;28;20038;-69
2023/04/06 07:21:39;;;;;;;8.65;4.00;;;;;;;18.89;32.67;101515.56;4984435;28;20050;-67
2023/04/06 07:24:04;;;;;;;8.10;3.75;;;;;;;18.87;32.71;101498.97;4984136;28;20113;-65
2023/04/06 07:26:30;;;;;;;8.48;3.90;;;;;;;18.86;32.97;101506.06;4995600;28;20111;-67
2023/04/06 07:28:55;;;;;;;7.68;4.10;;;;;;;18.84;33.06;101506.16;5003413;28;20030;-64
2023/04/06 07:31:20;;;;;;;6.57;3.60;;;;;;;18.85;32.91;101499.94;5003534;28;20044;-66
2023/04/06 07:33:46;;;;;;;7.50;3.88;;;;;;;18.89;32.94;101497.91;5003142;28;20493;-68
2023/04/06 07:36:12;;;;;;;7.70;3.50;;;;;;;18.88;33.10;101495.38;4997424;28;20117;-65
2023/04/06 07:38:37;;;;;;;8.07;3.58;;;;;;;18.92;33.34;101497.69;5001928;28;20091;-66
2023/04/06 07:41:03;;;;;;;7.50;3.45;;;;;;;18.93;33.43;101502.03;4995567;28;20117;-65
2023/04/06 07:43:30;;;;;;;8.43;3.80;;;;;;;18.94;33.24;101500.22;4983037;28;20073;-69
2023/04/06 07:45:57;;;;;;;10.38;4.22;;;;;;;19.04;33.13;101498.56;4992459;28;20374;-71
2023/04/06 07:48:23;;;;;;;9.00;3.78;;;;;;;19.01;33.29;101502.28;4995393;28;20027;-72
2023/04/06 07:50:48;;;;;;;8.18;3.90;;;;;;;18.97;33.37;101499.97;4990700;28;20041;-72
2023/04/06 07:53:13;;;;;;;8.35;3.95;;;;;;;18.97;33.57;101497.34;4991646;28;20026;-71
2023/04/06 07:55:38;;;;;;;9.82;3.65;;;;;;;18.98;33.66;101499.88;4988948;28;20493;-69
2023/04/06 07:58:04;;;;;;;6.30;3.47;;;;;;;19.02;33.63;101500.47;4997675;28;20034;-72
2023/04/06 08:00:30;;;;;;;8.87;3.90;;;;;;;19.08;33.70;101505.31;4990447;28;20613;-68
2023/04/06 08:02:55;;;;;;;9.32;3.95;;;;;;;19.16;33.22;101502.94;4992855;28;20279;-70
2023/04/06 08:05:21;;;;;;;14.65;3.92;;;;;;;19.20;33.04;101500.88;4988496;28;20092;-72
2023/04/06 08:07:46;;;;;;;11.45;3.92;;;;;;;19.19;33.20;101505.34;4987059;28;20147;-69
2023/04/06 08:10:11;;;;;;;7.85;4.60;;;;;;;19.20;33.14;101495.59;4999760;28;20034;-69
2023/04/06 08:12:36;;;;;;;10.15;4.00;;;;;;;19.19;33.13;101500.06;4999086;28;20080;-70
2023/04/06 08:15:03;;;;;;;8.23;3.80;;;;;;;19.16;33.06;101499.44;4983155;28;20819;-70
2023/04/06 08:17:30;;;;;;;6.85;3.38;;;;;;;19.14;33.33;101494.28;4992494;28;20044;-71
2023/04/06 08:19:55;;;;;;;10.20;3.60;;;;;;;19.18;33.01;101502.81;4996040;28;20372;-66
2023/04/06 08:22:21;;;;;;;5.43;3.10;;;;;;;19.23;33.07;101505.09;4998026;28;20050;-67
2023/04/06 08:24:46;;;;;;;8.80;3.28;;;;;;;19.17;32.96;101511.72;5001743;28;20088;-69
2023/04/06 08:27:13;;;;;;;6.70;3.47;;;;;;;19.18;33.38;101508.97;4993917;28;20065;-70
2023/04/06 08:29:38;;;;;;;6.75;3.67;;;;;;;19.16;33.06;101504.72;4984601;28;20311;-71
2023/04/06 08:32:06;;;;;;;8.68;3.70;;;;;;;19.20;33.30;101506.16;4986418;28;20073;-69
2023/04/06 08:34:33;;;;;;;7.05;3.42;;;;;;;19.27;33.42;101512.69;5001520;28;20121;-70
2023/04/06 08:36:58;;;;;;;10.35;3.20;;;;;;;19.28;33.53;101510.88;4997052;28;20037;-69
2023/04/06 08:39:25;;;;;;;5.88;3.40;;;;;;;19.30;33.38;101507.19;4990163;28;20041;-70
2023/04/06 08:41:52;;;;;;;6.25;3.20;;;;;;;19.32;33.17;101509.69;4985149;28;21074;-70
2023/04/06 08:44:18;;;;;;;7.07;3.53;;;;;;;19.34;33.43;101510.41;4983047;28;20030;-69
2023/04/06 08:46:43;;;;;;;7.55;4.15;;;;;;;19.33;33.44;101516.69;4981189;28;20044;-69
2023/04/06 08:49:09;;;;;;;8.40;3.63;;;;;;;19.31;33.44;101508.88;4997684;28;20394;-70
2023/04/06 08:51:37;;;;;;;7.50;3.90;;;;;;;19.31;33.72;101518.56;4993109;28;20049;-70
2023/04/06 08:54:02;;;;;;;7.20;3.58;;;;;;;19.30;33.56;101503.69;4993960;28;20048;-68
2023/04/06 08:56:28;;;;;;;6.65;2.97;;;;;;;19.36;33.68;101509.34;4996070;28;20037;-64
2023/04/06 08:58:54;;;;;;;8.10;3.67;;;;;;;19.37;33.71;101513.66;4991073;28;20397;-67
2023/04/06 09:01:26;;;;;;;7.07;3.60;;;;;;;19.41;33.49;101506.38;4991977;28;20038;-68
2023/04/06 09:03:56;;;;;;;7.03;3.00;;;;;;;19.39;33.79;101510.91;4998053;28;20034;-66
2023/04/06 09:06:22;;;;;;;7.50;3.25;;;;;;;19.38;33.89;101517.16;4975318;28;20038;-64
2023/04/06 09:08:47;;;;;;;9.45;2.95;;;;;;;19.41;33.85;101519.56;4987074;28;20836;-70
2023/04/06 09:11:13;;;;;;;8.45;3.90;;;;;;;19.34;33.87;101515.72;4981641;28;20113;-69
2023/04/06 09:13:45;;;;;;;8.23;3.80;;;;;;;19.24;34.09;101515.56;4990580;28;20061;-67
2023/04/06 09:16:11;;;;;;;7.80;4.00;;;;;;;19.24;34.28;101514.72;4989807;28;20101;-69
2023/04/06 09:18:36;;;;;;;12.35;3.95;;;;;;;19.27;34.62;101517.16;4987659;28;21060;-71
2023/04/06 09:21:03;;;;;;;7.65;3.30;;;;;;;19.35;34.43;101520.03;4996173;28;20100;-72
2023/04/06 09:23:29;;;;;;;7.25;2.90;;;;;;;19.39;34.34;101526.75;4991282;28;20074;-75
2023/04/06 09:26:12;;;;;;;6.00;2.85;;;;;;;19.40;34.46;101520.53;4986725;28;20054;-69
2023/04/06 09:28:52;;;;;;;8.70;3.22;;;;;;;19.39;34.55;101524.13;4988028;28;20034;-68
2023/04/06 09:31:28;;;;;;;7.60;3.78;;;;;;;19.36;34.79;101519.94;4987321;28;20034;-70
2023/04/06 09:33:54;;;;;;;8.43;4.07;;;;;;;19.24;35.20;101517.38;4985580;28;20034;-71
2023/04/06 09:36:28;;;;;;;8.18;3.58;;;;;;;19.14;35.25;101520.69;4989259;28;20042;-66
2023/04/06 09:38:55;;;;;;;8.13;3.67;;;;;;;19.21;34.95;101515.78;4987393;28;20049;-68
2023/04/06 09:41:28;;;;;;;14.00;3.58;;;;;;;19.25;35.04;101516.41;4991789;28;20034;-72
2023/04/06 09:44:02;;;;;;;13.52;4.45;;;;;;;19.30;35.31;101517.75;4995762;28;20037;-68
2023/04/06 09:46:30;;;;;;;;;;;;;;;19.33;34.71;101517.50;4985279;28;20550;-66
2023/04/06 09:48:55;;;;;;;6.88;3.78;;;;;;;19.34;34.56;101523.63;4983778;28;19972;-67
2023/04/06 09:51:21;;;;;;;9.75;3.40;;;;;;;19.32;34.63;101518.47;4982187;28;20062;-67
2023/04/06 09:53:53;;;;;;;6.32;3.45;;;;;;;19.29;34.63;101510.75;4989737;28;20033;-65
2023/04/06 09:56:23;;;;;;;6.03;2.90;;;;;;;19.29;34.63;101518.69;4985479;28;20062;-67
2023/04/06 09:58:52;;;;;;;8.10;3.65;;;;;;;19.24;34.56;101512.91;4982238;28;20740;-67
2023/04/06 10:01:20;;;;;;;10.35;3.63;;;;;;;19.23;34.50;101521.78;4985563;28;20046;-67
2023/04/06 10:03:51;;;;;;;5.32;3.10;;;;;;;19.18;34.46;101513.38;4985549;28;20470;-69
2023/04/06 10:06:21;;;;;;;7.00;3.28;;;;;;;19.19;34.75;101507.97;4998264;28;20061;-69
2023/04/06 10:08:49;;;;;;;6.70;2.85;;;;;;;19.19;34.69;101515.91;4989623;28;20070;-67
2023/04/06 10:11:16;;;;;;;11.50;2.60;;;;;;;19.11;34.96;101515.66;4996503;28;20044;-67
2023/04/06 10:13:41;;;;;;;10.82;2.92;;;;;;;19.08;35.21;101513.22;4991945;28;20038;-68
2023/04/06 10:16:07;;;;;;;7.13;2.65;;;;;;;19.06;35.26;101517.78;4984748;28;20373;-66
2023/04/06 10:18:33;;;;;;;5.57;2.40;;;;;;;19.04;35.20;101514.41;4986371;28;20410;-68
2023/04/06 10:21:11;;;;;;;7.55;2.53;;;;;;;19.03;35.38;101512.75;4991291;28;20486;-65
2023/04/06 10:23:43;;;;;;;7.70;2.50;;;;;;;19.05;35.47;101515.25;4994831;28;20042;-66
2023/04/06 10:26:13;;;;;;;6.47;2.40;;;;;;;19.06;35.62;101519.56;4989231;28;20117;-64
2023/04/06 10:28:41;;;;;;;5.68;2.50;;;;;;;19.07;35.66;101521.28;4996332;28;20558;-66
2023/04/06 10:31:07;;;;;;;7.00;2.75;;;;;;;19.07;35.64;101521.28;5000070;28;20666;-63
2023/04/06 10:33:32;;;;;;;7.15;2.20;;;;;;;19.07;35.75;101522.09;4992798;28;20125;-65
2023/04/06 10:36:09;;;;;;;5.20;2.47;;;;;;;19.03;36.24;101520.66;4994201;28;20041;-64
2023/04/06 10:38:37;;;;;;;7.57;2.22;;;;;;;19.06;36.40;101522.22;5000951;28;20037;-67
2023/04/06 10:41:06;;;;;;;6.07;2.40;;;;;;;19.01;36.26;101514.66;4997294;28;20035;-64
2023/04/06 10:43:37;;;;;;;5.47;2.47;;;;;;;19.00;36.39;101515.59;4989010;28;20501;-67
2023/04/06 10:46:03;;;;;;;8.05;2.55;;;;;;;19.01;36.70;101514.66;4994608;28;20121;-64
2023/04/06 10:48:47;;;;;;;7.18;3.17;;;;;;;19.00;36.80;101510.31;4984934;28;20038;-65
2023/04/06 10:51:14;;;;;;;7.03;2.45;;;;;;;19.04;36.78;101511.75;4986983;28;20034;-65
2023/04/06 10:53:43;;;;;;;10.25;3.55;;;;;;;19.03;36.86;101510.09;4986930;28;20035;-65
2023/04/06 10:56:14;;;;;;;7.60;2.65;;;;;;;19.02;37.17;101511.88;4995905;28;20097;-65
2023/04/06 10:58:49;;;;;;;11.73;2.90;;;;;;;19.02;37.13;101505.75;5000318;28;20038;-65
2023/04/06 11:01:16;;;;;;;7.43;2.72;;;;;;;19.01;36.89;101502.28;4994480;28;20093;-65
2023/04/06 11:03:49;;;;;;;7.03;2.50;;;;;;;19.03;37.29;101499.53;4994147;28;20046;-65
2023/04/06 11:06:22;;;;;;;7.82;2.58;;;;;;;19.02;37.23;101497.84;4979075;28;20091;-65
2023/04/06 11:08:48;;;;;;;15.05;2.90;;;;;;;19.04;37.56;101495.91;4994455;28;20038;-64
2023/04/06 11:11:18;;;;;;;10.00;2.45;;;;;;;19.03;37.36;101497.72;4993975;28;20042;-64
2023/04/06 11:13:59;;;;;;;7.97;2.65;;;;;;;19.05;37.29;101497.59;4993102;28;20041;-62
2023/04/06 11:16:29;;;;;;;8.27;2.53;;;;;;;19.06;37.34;101493.16;4993364;28;20076;-66
2023/04/06 11:19:02;;;;;;;9.10;2.33;;;;;;;19.04;37.35;101493.28;4995641;28;20391;-64